Terminal Aerodrome Forecast
Issued by NWS

Home | Current Version | Previous Version | Text Only | Print | Product List | Glossary On
Versions: 1 2 3 4 5 6 7 8 9 10 11 12
000
FTUS45 KRIW 160539
TAFWRL
TAF
KWRL 160539Z 1606/1706 16006KT P6SM SCT080 BKN200
     FM161100 34007KT P6SM VCSH SCT020 OVC035
     FM161400 30006KT 2SM -SN SCT003 BKN012 OVC020
     FM162200 34013KT 4SM -SN SCT008 BKN020 OVC030
     FM170300 30008KT P6SM BKN030=

USA.gov is the U.S. government's official web portal to all federal, state and local government web resources and services.